Time;durP1;ratioP1;P1;durP2;ratioP2;P2;SDS_P1;SDS_P2;PMS_P1;PMS_P2;Temp;Humidity;BMP_temperature;BMP_pressure;BME280_temperature;BME280_humidity;BME280_pressure;Samples;Min_cycle;Max_cycle;Signal;HPM_P1;HPM_P2
2022/04/13 00:00:50;;;;;;;7.90;4.10;;;;;;;13.47;nan;101057.38;5050546;28;20044;-59
2022/04/13 00:03:15;;;;;;;8.60;4.20;;;;;;;13.79;nan;101096.59;5050875;28;20110;-58
2022/04/13 00:05:41;;;;;;;9.70;4.30;;;;;;;13.47;nan;101050.31;5050611;28;20041;-57
2022/04/13 00:08:06;;;;;;;8.23;3.95;;;;;;;13.78;nan;101101.91;5051989;28;20064;-59
2022/04/13 00:10:33;;;;;;;8.75;3.90;;;;;;;13.59;nan;101075.38;5051607;28;20078;-58
2022/04/13 00:12:59;;;;;;;6.28;4.20;;;;;;;13.75;nan;101104.69;5051837;28;20381;-59
2022/04/13 00:15:24;;;;;;;10.18;4.40;;;;;;;13.70;nan;101106.66;5051634;28;20050;-58
2022/04/13 00:17:49;;;;;;;7.88;3.80;;;;;;;13.32;nan;101037.69;5051538;28;20041;-58
2022/04/13 00:20:15;;;;;;;10.82;5.05;;;;;;;13.20;nan;101032.03;5051807;28;20082;-58
2022/04/13 00:22:40;;;;;;;9.95;4.47;;;;;;;13.49;nan;101089.88;5051477;28;20044;-56
2022/04/13 00:25:06;;;;;;;8.52;4.47;;;;;;;13.10;nan;101067.69;5054353;28;20064;-59
2022/04/13 00:27:31;;;;;;;7.82;4.30;;;;;;;13.30;nan;101102.13;5055478;28;20029;-58
2022/04/13 00:29:57;;;;;;;8.88;4.15;;;;;;;13.17;nan;101095.59;5055437;28;20121;-59
2022/04/13 00:32:22;;;;;;;6.78;3.92;;;;;;;12.85;nan;101049.22;5055181;28;20029;-58
2022/04/13 00:34:47;;;;;;;6.90;4.55;;;;;;;13.02;nan;101080.31;5055358;28;20032;-58
2022/04/13 00:37:13;;;;;;;6.13;4.40;;;;;;;13.06;nan;101093.34;5055394;28;20037;-59
2022/04/13 00:39:38;;;;;;;9.98;4.70;;;;;;;12.85;nan;101059.81;5054113;28;20037;-59
2022/04/13 00:42:05;;;;;;;13.07;5.22;;;;;;;13.06;nan;101093.34;5055262;28;20041;-58
2022/04/13 00:44:31;;;;;;;9.43;5.38;;;;;;;12.83;nan;101051.09;5053817;28;20036;-59
2022/04/13 00:46:57;;;;;;;14.25;5.70;;;;;;;13.13;nan;101094.88;5053934;28;20033;-58
2022/04/13 00:49:24;;;;;;;10.80;5.40;;;;;;;13.18;nan;101100.84;5055236;28;20327;-58
2022/04/13 00:51:50;;;;;;;10.27;4.97;;;;;;;12.96;nan;101057.59;5054810;28;20537;-58
2022/04/13 00:54:18;;;;;;;11.73;5.20;;;;;;;13.27;nan;101113.69;5055014;28;20068;-59
2022/04/13 00:56:45;;;;;;;10.00;4.63;;;;;;;13.01;nan;101055.66;5054854;28;20435;-59
2022/04/13 00:59:13;;;;;;;7.75;5.07;;;;;;;13.01;nan;101065.38;5053544;28;20315;-59
2022/04/13 01:01:41;;;;;;;10.07;5.18;;;;;;;12.97;nan;101054.91;5053882;28;20033;-59
2022/04/13 01:04:06;;;;;;;9.80;5.05;;;;;;;13.02;nan;101067.09;5054706;28;20102;-59
2022/04/13 01:06:32;;;;;;;10.98;5.35;;;;;;;13.20;nan;101095.47;5053592;28;20525;-59
2022/04/13 01:08:57;;;;;;;8.93;5.63;;;;;;;13.00;nan;101069.78;5054809;28;20116;-57
2022/04/13 01:11:24;;;;;;;10.32;5.50;;;;;;;12.91;nan;101062.22;5053581;28;20040;-57
2022/04/13 01:13:53;;;;;;;7.40;5.50;;;;;;;13.24;nan;101120.88;5053438;28;20029;-58
2022/04/13 01:16:19;;;;;;;9.68;5.55;;;;;;;12.95;nan;101069.13;5054286;28;20048;-58
2022/04/13 01:18:44;;;;;;;16.67;6.00;;;;;;;13.24;nan;101126.16;5054676;28;20124;-59
2022/04/13 01:21:13;;;;;;;10.50;5.47;;;;;;;12.93;nan;101081.50;5054434;28;20033;-59
2022/04/13 01:23:39;;;;;;;9.32;5.75;;;;;;;13.13;nan;101115.16;5054478;28;20124;-59
2022/04/13 01:26:08;;;;;;;9.38;5.88;;;;;;;12.87;nan;101064.09;5054176;28;20470;-58
2022/04/13 01:28:33;;;;;;;9.27;6.05;;;;;;;12.83;nan;101059.00;5054295;28;20393;-61
2022/04/13 01:30:58;;;;;;;13.00;5.72;;;;;;;13.11;nan;101112.53;5052985;28;20036;-60
2022/04/13 01:33:26;;;;;;;8.25;5.32;;;;;;;12.82;nan;101055.50;5054377;28;20425;-58
2022/04/13 01:35:51;;;;;;;8.60;5.70;;;;;;;13.14;nan;101116.84;5035204;28;20398;-58
2022/04/13 01:38:17;;;;;;;15.35;7.30;;;;;;;13.11;nan;101114.31;5053988;28;20040;-59
2022/04/13 01:40:43;;;;;;;9.45;5.60;;;;;;;13.11;nan;101119.59;5054117;28;20040;-59
2022/04/13 01:43:09;;;;;;;12.02;5.70;;;;;;;12.80;nan;101069.69;5052539;28;20065;-59
2022/04/13 01:45:34;;;;;;;9.52;6.00;;;;;;;13.05;nan;101117.19;5053914;28;20520;-58
2022/04/13 01:48:00;;;;;;;11.43;6.20;;;;;;;13.08;nan;101136.44;5053915;28;20068;-59
2022/04/13 01:50:25;;;;;;;10.15;6.72;;;;;;;13.10;nan;101131.13;5054143;28;20045;-59
2022/04/13 01:52:50;;;;;;;15.40;6.63;;;;;;;12.85;nan;101083.56;5053703;28;20043;-59
2022/04/13 01:55:16;;;;;;;12.35;7.07;;;;;;;12.92;nan;101095.66;5052644;28;20040;-59
2022/04/13 01:57:41;;;;;;;12.75;6.15;;;;;;;12.82;nan;101083.69;5053857;28;20579;-59
2022/04/13 02:00:10;;;;;;;10.27;6.40;;;;;;;12.80;nan;101081.13;5052435;28;20503;-58
2022/04/13 02:02:35;;;;;;;11.80;6.65;;;;;;;12.76;nan;101073.34;5053870;28;20040;-61
2022/04/13 02:05:01;;;;;;;13.35;7.28;;;;;;;13.06;nan;101122.41;5053632;28;20037;-59
2022/04/13 02:07:27;;;;;;;11.82;6.95;;;;;;;13.03;nan;101130.44;5053618;28;20044;-58
2022/04/13 02:09:54;;;;;;;12.30;6.65;;;;;;;12.99;nan;101137.63;5069088;28;20094;-59
2022/04/13 02:12:19;;;;;;;7.90;5.82;;;;;;;12.25;nan;101013.66;5068858;28;20032;-59
2022/04/13 02:14:45;;;;;;;10.63;6.55;;;;;;;12.67;nan;101069.28;5053457;28;20048;-58
2022/04/13 02:17:14;;;;;;;12.38;7.15;;;;;;;13.01;nan;101126.16;5053552;28;20386;-59
2022/04/13 02:19:40;;;;;;;10.43;6.55;;;;;;;12.93;nan;101114.06;5053556;28;20099;-58
2022/04/13 02:22:07;;;;;;;9.90;7.47;;;;;;;13.12;nan;101150.41;5053173;28;20037;-58
2022/04/13 02:24:34;;;;;;;13.68;7.60;;;;;;;13.12;nan;101142.47;5053351;28;20393;-59
2022/04/13 02:27:00;;;;;;;13.88;7.07;;;;;;;12.73;nan;101071.69;5053138;28;20071;-58
2022/04/13 02:29:26;;;;;;;11.95;7.03;;;;;;;13.08;nan;101136.44;5053332;28;20045;-59
2022/04/13 02:31:51;;;;;;;15.70;7.25;;;;;;;13.11;nan;101151.31;5052097;28;20068;-59
2022/04/13 02:34:17;;;;;;;15.77;8.38;;;;;;;13.07;nan;101147.06;5053150;28;20041;-59
2022/04/13 02:36:43;;;;;;;11.50;7.93;;;;;;;13.03;nan;101140.16;5053146;28;20114;-59
2022/04/13 02:39:08;;;;;;;17.95;9.13;;;;;;;13.06;nan;101150.59;5035246;28;20489;-59
2022/04/13 02:41:34;;;;;;;14.77;8.45;;;;;;;12.74;nan;101099.84;5052851;28;20167;-58
2022/04/13 02:43:59;;;;;;;17.35;8.88;;;;;;;12.94;nan;101144.00;5051681;28;20115;-59
2022/04/13 02:46:24;;;;;;;12.48;8.00;;;;;;;12.88;nan;101153.03;5052298;28;20051;-59
2022/04/13 02:48:50;;;;;;;11.52;7.78;;;;;;;12.64;nan;101103.72;5052846;28;20045;-59
2022/04/13 02:51:15;;;;;;;10.20;7.82;;;;;;;12.80;nan;101141.00;5052379;28;20052;-59
2022/04/13 02:53:40;;;;;;;13.07;7.90;;;;;;;12.78;nan;101137.56;5051412;28;20040;-59
2022/04/13 02:56:06;;;;;;;11.38;8.13;;;;;;;12.73;nan;101148.28;5052602;28;20048;-58
2022/04/13 02:58:31;;;;;;;13.40;7.88;;;;;;;12.52;nan;101100.69;5051550;28;20043;-60
2022/04/13 03:00:56;;;;;;;10.38;7.43;;;;;;;12.30;nan;101075.06;5052639;28;20039;-58
2022/04/13 03:03:22;;;;;;;9.77;7.75;;;;;;;12.37;nan;101083.63;5051265;28;20761;-59
2022/04/13 03:05:47;;;;;;;12.60;8.52;;;;;;;12.69;nan;101140.56;5051058;28;20552;-58
2022/04/13 03:08:12;;;;;;;16.15;8.68;;;;;;;12.51;nan;101123.59;5052271;28;20112;-58
2022/04/13 03:10:38;;;;;;;10.68;7.25;;;;;;;12.63;nan;101144.28;5051072;28;20040;-59
2022/04/13 03:13:03;;;;;;;10.45;7.55;;;;;;;12.70;nan;101153.69;5052522;28;20032;-58
2022/04/13 03:15:29;;;;;;;15.18;8.13;;;;;;;12.60;nan;101136.47;5052379;28;20053;-59
2022/04/13 03:17:54;;;;;;;11.05;7.25;;;;;;;12.44;nan;101098.31;5067957;28;20060;-59
2022/04/13 03:20:19;;;;;;;9.38;7.15;;;;;;;12.78;nan;101159.53;5052001;28;20060;-58
2022/04/13 03:22:45;;;;;;;14.13;8.85;;;;;;;12.49;nan;101109.59;5052150;28;20033;-59
2022/04/13 03:25:11;;;;;;;13.55;7.90;;;;;;;12.67;nan;101140.59;5051858;28;20184;-58
2022/04/13 03:27:39;;;;;;;11.18;8.13;;;;;;;12.48;nan;101114.91;5052454;28;20037;-58
2022/04/13 03:30:05;;;;;;;8.90;7.97;;;;;;;12.79;nan;101184.19;5052150;28;20033;-60
2022/04/13 03:32:37;;;;;;;13.65;8.30;;;;;;;12.77;nan;101180.75;5052215;28;20037;-58
2022/04/13 03:35:08;;;;;;;10.43;8.88;;;;;;;12.73;nan;101180.00;5050837;28;20370;-59
2022/04/13 03:37:33;;;;;;;12.35;8.63;;;;;;;12.64;nan;101172.38;5050723;28;20389;-59
2022/04/13 03:39:58;;;;;;;11.30;8.57;;;;;;;12.71;nan;101187.13;5050555;28;20179;-58
2022/04/13 03:42:24;;;;;;;10.80;8.52;;;;;;;12.38;nan;101132.84;5050747;28;20115;-59
2022/04/13 03:44:49;;;;;;;11.48;8.55;;;;;;;12.71;nan;101189.75;5051773;28;20138;-58
2022/04/13 03:47:15;;;;;;;15.00;8.88;;;;;;;12.61;nan;101174.31;5050680;28;20099;-59
2022/04/13 03:49:40;;;;;;;15.73;8.70;;;;;;;12.37;nan;101137.25;5051765;28;20037;-56
2022/04/13 03:52:06;;;;;;;10.85;8.75;;;;;;;12.51;nan;101167.59;5033962;28;20442;-58
2022/04/13 03:54:31;;;;;;;13.95;9.55;;;;;;;12.63;nan;101189.16;5050425;28;20071;-58
2022/04/13 03:56:56;;;;;;;12.95;8.90;;;;;;;12.67;nan;101185.47;5050623;28;20049;-59
2022/04/13 03:59:22;;;;;;;14.40;9.90;;;;;;;12.69;nan;101201.28;5053725;28;20466;-59
2022/04/13 04:01:48;;;;;;;14.07;9.48;;;;;;;12.33;nan;101129.50;5054757;28;20311;-56
2022/04/13 04:04:13;;;;;;;11.85;9.55;;;;;;;12.33;nan;101151.50;5054618;28;20590;-59
2022/04/13 04:06:38;;;;;;;16.13;9.98;;;;;;;12.26;nan;101141.19;5055860;28;20450;-59
2022/04/13 04:09:04;;;;;;;12.57;10.63;;;;;;;12.28;nan;101145.53;5054455;28;20033;-59
2022/04/13 04:11:29;;;;;;;13.05;10.35;;;;;;;12.53;nan;101203.59;5055914;28;20071;-59
2022/04/13 04:13:55;;;;;;;17.13;10.57;;;;;;;12.47;nan;101205.56;5055706;28;20085;-59
2022/04/13 04:16:20;;;;;;;16.38;11.77;;;;;;;12.37;nan;101205.06;5054316;28;20036;-59
2022/04/13 04:18:48;;;;;;;14.63;11.32;;;;;;;12.14;nan;101183.84;5054324;28;20182;-59
2022/04/13 04:21:15;;;;;;;17.65;12.00;;;;;;;11.88;nan;101147.75;5055523;28;20035;-59
2022/04/13 04:23:40;;;;;;;16.15;10.82;;;;;;;12.11;nan;101203.25;5021297;28;20040;-58
2022/04/13 04:26:05;;;;;;;15.40;11.52;;;;;;;12.00;nan;101201.88;5054378;28;20025;-57
2022/04/13 04:28:31;;;;;;;15.38;11.85;;;;;;;11.96;nan;101218.75;5055602;28;20037;-60
2022/04/13 04:30:56;;;;;;;14.25;11.80;;;;;;;11.51;nan;101161.22;5055576;28;20055;-60
2022/04/13 04:33:23;;;;;;;15.55;11.20;;;;;;;11.80;nan;101213.94;5055294;28;20440;-59
2022/04/13 04:35:49;;;;;;;18.70;12.27;;;;;;;11.42;nan;101165.91;5055478;28;20375;-59
2022/04/13 04:38:14;;;;;;;17.40;12.13;;;;;;;11.67;nan;101225.75;5055102;28;20482;-59
2022/04/13 04:40:40;;;;;;;18.50;12.88;;;;;;;11.65;nan;101237.25;5054114;28;20083;-59
2022/04/13 04:43:05;;;;;;;17.33;12.63;;;;;;;11.58;nan;101241.88;5055334;28;20116;-59
2022/04/13 04:45:30;;;;;;;18.00;13.00;;;;;;;11.52;nan;101236.78;5055066;28;20041;-59
2022/04/13 04:47:57;;;;;;;13.90;11.73;;;;;;;11.13;nan;101179.94;5054082;28;20037;-58
2022/04/13 04:50:23;;;;;;;17.50;12.38;;;;;;;11.02;nan;101171.50;5054811;28;20409;-59
2022/04/13 04:52:49;;;;;;;20.20;12.23;;;;;;;11.23;nan;101227.09;5054582;28;20029;-59
2022/04/13 04:55:16;;;;;;;18.52;12.50;;;;;;;11.28;nan;101234.84;5055022;28;20447;-58
2022/04/13 04:57:42;;;;;;;17.90;12.45;;;;;;;11.24;nan;101255.16;5053820;28;20033;-60
2022/04/13 05:00:09;;;;;;;19.35;12.38;;;;;;;11.01;nan;101212.78;5054980;28;20044;-59
2022/04/13 05:02:37;;;;;;;17.83;12.68;;;;;;;11.11;nan;101242.38;5054838;28;20167;-59
2022/04/13 05:05:04;;;;;;;23.10;13.00;;;;;;;11.18;nan;101254.44;5054627;28;20067;-59
2022/04/13 05:07:29;;;;;;;19.65;12.30;;;;;;;11.11;nan;101255.53;5036624;28;20033;-59
2022/04/13 05:09:54;;;;;;;12.35;10.90;;;;;;;10.78;nan;101194.13;5054318;28;20470;-59
2022/04/13 05:12:20;;;;;;;19.25;12.15;;;;;;;10.41;nan;101138.13;5053301;28;20037;-58
2022/04/13 05:14:45;;;;;;;18.88;11.40;;;;;;;11.12;nan;101265.19;5054490;28;20040;-60
2022/04/13 05:17:10;;;;;;;12.30;10.13;;;;;;;11.12;nan;101258.13;5054377;28;20036;-60
2022/04/13 05:19:36;;;;;;;18.30;11.48;;;;;;;10.77;nan;101202.09;5054540;28;20037;-60
2022/04/13 05:22:01;;;;;;;16.30;11.27;;;;;;;10.77;nan;101194.19;5053063;28;20044;-60
2022/04/13 05:24:27;;;;;;;16.08;10.48;;;;;;;11.18;nan;101272.88;5053127;28;20029;-59
2022/04/13 05:26:52;;;;;;;15.27;10.43;;;;;;;10.82;nan;101214.22;5054383;28;20135;-59
2022/04/13 05:29:17;;;;;;;13.50;10.50;;;;;;;11.23;nan;101277.16;5054377;28;20123;-59
2022/04/13 05:31:42;;;;;;;15.48;9.73;;;;;;;11.29;nan;101281.38;5054202;28;20383;-59
2022/04/13 05:34:08;;;;;;;15.38;10.00;;;;;;;11.30;nan;101275.19;5054113;28;20033;-60
2022/04/13 05:36:34;;;;;;;12.30;9.55;;;;;;;11.39;nan;101276.69;5054247;28;20025;-59
2022/04/13 05:38:59;;;;;;;17.35;9.18;;;;;;;11.16;nan;101237.81;5054465;28;20037;-58
2022/04/13 05:41:24;;;;;;;13.70;8.98;;;;;;;11.21;nan;101223.63;5054379;28;20086;-59
2022/04/13 05:43:49;;;;;;;14.95;8.70;;;;;;;11.68;nan;101295.16;5053050;28;20082;-58
2022/04/13 05:46:15;;;;;;;16.90;9.23;;;;;;;11.56;nan;101259.47;5053576;28;20389;-60
2022/04/13 05:48:40;;;;;;;15.23;8.02;;;;;;;11.85;nan;101292.91;5052418;28;20025;-60
2022/04/13 05:51:06;;;;;;;12.07;9.02;;;;;;;11.55;nan;101231.41;5053885;28;20049;-59
2022/04/13 05:53:31;;;;;;;11.95;8.07;;;;;;;11.54;nan;101244.63;5053850;28;20177;-59
2022/04/13 05:55:56;;;;;;;15.48;8.35;;;;;;;12.01;nan;101314.44;5053868;28;20462;-61
2022/04/13 05:58:24;;;;;;;13.07;7.72;;;;;;;12.12;nan;101323.75;5053823;28;20052;-59
2022/04/13 06:00:49;;;;;;;10.50;7.30;;;;;;;12.10;nan;101304.47;5052562;28;20087;-59
2022/04/13 06:03:14;;;;;;;10.60;7.68;;;;;;;11.97;nan;101268.81;5053570;28;20060;-59
2022/04/13 06:05:40;;;;;;;12.30;7.68;;;;;;;12.46;nan;101335.88;5053515;28;20543;-59
2022/04/13 06:08:05;;;;;;;8.43;6.68;;;;;;;12.51;nan;101337.47;5053863;28;20044;-59
2022/04/13 06:10:31;;;;;;;10.90;7.07;;;;;;;12.65;nan;101344.94;5053347;28;20025;-59
2022/04/13 06:12:56;;;;;;;9.10;6.75;;;;;;;12.73;nan;101349.03;5053492;28;20040;-59
2022/04/13 06:15:21;;;;;;;10.32;6.28;;;;;;;12.78;nan;101349.75;5053131;28;20107;-59
2022/04/13 06:17:46;;;;;;;11.30;7.30;;;;;;;12.87;nan;101352.06;5053518;28;20078;-59
2022/04/13 06:20:14;;;;;;;9.55;7.35;;;;;;;12.64;nan;101301.78;5053269;28;20033;-60
2022/04/13 06:22:41;;;;;;;9.40;6.38;;;;;;;12.69;nan;101299.03;5052854;28;20440;-60
2022/04/13 06:25:08;;;;;;;12.13;6.97;;;;;;;12.98;nan;101349.97;5051870;28;20032;-59
2022/04/13 06:27:34;;;;;;;8.20;6.32;;;;;;;12.75;nan;101307.59;5053187;28;20128;-59
2022/04/13 06:29:59;;;;;;;13.68;6.18;;;;;;;13.05;nan;101361.16;5052799;28;20533;-59
2022/04/13 06:32:35;;;;;;;9.93;6.78;;;;;;;13.16;nan;101382.88;5055577;28;20468;-59
2022/04/13 06:35:01;;;;;;;9.65;7.07;;;;;;;13.15;nan;101377.63;5043422;28;20074;-58
2022/04/13 06:37:26;;;;;;;12.25;7.18;;;;;;;13.16;nan;101388.16;5060165;28;20388;-59
2022/04/13 06:39:52;;;;;;;9.60;6.93;;;;;;;13.04;nan;101367.38;5052953;28;20037;-58
2022/04/13 06:42:17;;;;;;;12.27;7.00;;;;;;;12.86;nan;101333.66;5052856;28;20029;-60
2022/04/13 06:44:43;;;;;;;11.07;7.38;;;;;;;13.19;nan;101390.66;5052681;28;20045;-60
2022/04/13 06:47:08;;;;;;;12.35;6.60;;;;;;;13.17;nan;101403.06;5053031;28;20055;-59
2022/04/13 06:49:33;;;;;;;13.18;7.45;;;;;;;13.27;nan;101419.50;5052566;28;20784;-60
2022/04/13 06:51:58;;;;;;;12.93;7.22;;;;;;;13.26;nan;101423.91;5045036;28;20053;-59
2022/04/13 06:54:24;;;;;;;12.18;7.00;;;;;;;13.02;nan;101358.63;5032808;28;20041;-59
2022/04/13 06:56:49;;;;;;;17.98;7.03;;;;;;;12.52;nan;101296.91;5032817;28;20037;-59
2022/04/13 06:59:15;;;;;;;12.02;6.82;;;;;;;13.52;nan;101431.81;5042952;28;20048;-60
2022/04/13 07:01:40;;;;;;;11.00;6.72;;;;;;;13.46;nan;101379.13;5051269;28;20448;-60
2022/04/13 07:04:05;;;;;;;12.10;6.93;;;;;;;13.68;nan;101375.72;5048914;28;20033;-60
2022/04/13 07:06:31;;;;;;;8.55;6.55;;;;;;;14.23;nan;101443.34;5036900;28;20071;-61
2022/04/13 07:08:56;;;;;;;13.48;6.35;;;;;;;14.37;nan;101447.22;5053072;28;20059;-60
2022/04/13 07:11:21;;;;;;;14.00;7.05;;;;;;;14.27;nan;101395.53;5051548;28;20037;-59
2022/04/13 07:13:47;;;;;;;10.02;7.00;;;;;;;14.68;nan;101446.03;5050349;28;20379;-59
2022/04/13 07:16:12;;;;;;;14.57;8.40;;;;;;;14.79;nan;101455.28;5049909;28;20143;-60
2022/04/13 07:18:37;;;;;;;15.10;7.38;;;;;;;14.61;nan;101437.47;5050498;28;20107;-59
2022/04/13 07:21:03;;;;;;;12.82;6.60;;;;;;;14.36;nan;101411.06;5051137;28;20043;-59
2022/04/13 07:23:28;;;;;;;10.02;6.70;;;;;;;14.06;nan;101385.75;5050875;28;20037;-58
2022/04/13 07:25:53;;;;;;;15.90;7.18;;;;;;;14.29;nan;101436.03;5050771;28;20051;-59
2022/04/13 07:28:20;;;;;;;15.63;6.93;;;;;;;14.04;nan;101408.75;5051108;28;20037;-59
2022/04/13 07:30:45;;;;;;;12.23;7.15;;;;;;;14.38;nan;101456.91;5050769;28;20481;-59
2022/04/13 07:33:11;;;;;;;13.30;7.43;;;;;;;14.48;nan;101468.84;5050515;28;20059;-59
2022/04/13 07:35:36;;;;;;;13.30;7.10;;;;;;;14.59;nan;101468.47;5049510;28;20114;-59
2022/04/13 07:38:02;;;;;;;11.82;7.38;;;;;;;14.65;nan;101486.78;5049483;28;20056;-59
2022/04/13 07:40:27;;;;;;;9.52;6.93;;;;;;;14.86;nan;101479.72;5049512;28;20025;-60
2022/04/13 07:42:52;;;;;;;12.43;6.35;;;;;;;14.69;nan;101459.22;5050488;28;20481;-59
2022/04/13 07:45:18;;;;;;;14.50;7.03;;;;;;;14.98;nan;101496.03;5049124;28;20040;-59
2022/04/13 07:47:44;;;;;;;13.75;6.90;;;;;;;14.80;nan;101446.38;5050039;28;20051;-58
2022/04/13 07:50:13;;;;;;;15.25;7.10;;;;;;;14.77;nan;101456.28;5049320;28;20041;-59
2022/04/13 07:52:40;;;;;;;11.15;6.13;;;;;;;14.80;nan;101486.16;5050005;28;20048;-59
2022/04/13 07:55:07;;;;;;;20.95;9.75;;;;;;;14.69;nan;101476.88;5043609;28;20377;-59
2022/04/13 07:57:32;;;;;;;11.27;7.22;;;;;;;14.56;nan;101472.06;5050829;28;20029;-59
2022/04/13 07:59:58;;;;;;;15.68;7.82;;;;;;;14.74;nan;101512.88;5056265;28;20384;-59
2022/04/13 08:02:23;;;;;;;13.02;6.70;;;;;;;14.78;nan;101501.25;5060995;28;20036;-59
2022/04/13 08:04:49;;;;;;;11.07;6.57;;;;;;;14.25;nan;101417.66;5049703;28;20067;-59
2022/04/13 08:07:15;;;;;;;16.38;6.90;;;;;;;14.59;nan;101479.06;5049902;28;20041;-60
2022/04/13 08:09:41;;;;;;;9.60;6.30;;;;;;;14.44;nan;101459.31;5049977;28;20557;-59
2022/04/13 08:12:06;;;;;;;8.10;6.43;;;;;;;14.80;nan;101512.66;5048412;28;20108;-59
2022/04/13 08:14:32;;;;;;;13.43;7.03;;;;;;;14.73;nan;101516.47;5048161;28;20033;-60
2022/04/13 08:16:57;;;;;;;10.48;5.85;;;;;;;14.80;nan;101503.84;5050000;28;20064;-60
2022/04/13 08:19:23;;;;;;;10.55;5.72;;;;;;;14.85;nan;101520.44;5050126;28;20041;-60
2022/04/13 08:21:48;;;;;;;11.57;6.20;;;;;;;14.92;nan;101517.47;5050315;28;20554;-59
2022/04/13 08:24:13;;;;;;;9.77;6.30;;;;;;;14.99;nan;101528.72;5049973;28;20090;-59
2022/04/13 08:26:39;;;;;;;12.60;6.95;;;;;;;14.99;nan;101534.88;5050159;28;20048;-59
2022/04/13 08:29:04;;;;;;;12.77;6.38;;;;;;;14.87;nan;101503.53;5049986;28;20375;-58
2022/04/13 08:31:30;;;;;;;10.52;5.20;;;;;;;15.04;nan;101521.41;5049967;28;20477;-60
2022/04/13 08:33:55;;;;;;;10.85;6.30;;;;;;;15.11;nan;101534.41;5049218;28;20037;-61
2022/04/13 08:36:20;;;;;;;17.45;7.18;;;;;;;14.94;nan;101525.38;5049804;28;20033;-60
2022/04/13 08:38:45;;;;;;;8.82;5.30;;;;;;;14.80;nan;101502.03;5032310;28;20041;-60
2022/04/13 08:41:14;;;;;;;15.65;6.35;;;;;;;15.12;nan;101552.00;5049770;28;20080;-60
2022/04/13 08:43:57;;;;;;;13.60;7.43;;;;;;;14.99;nan;101496.88;5050606;28;20228;-60
2022/04/13 08:46:26;;;;;;;12.20;6.55;;;;;;;15.06;nan;101488.63;5051860;28;20041;-59
2022/04/13 08:48:55;;;;;;;13.63;6.35;;;;;;;15.46;nan;101537.38;5053554;28;20029;-60
2022/04/13 08:51:21;;;;;;;14.50;7.35;;;;;;;15.40;nan;101524.38;5053627;28;20118;-60
2022/04/13 08:53:49;;;;;;;18.20;7.45;;;;;;;15.33;nan;101514.94;5053927;28;20050;-59
2022/04/13 08:56:18;;;;;;;13.02;8.00;;;;;;;15.43;nan;101542.81;5052448;28;20039;-59
2022/04/13 08:58:52;;;;;;;13.85;7.00;;;;;;;15.37;nan;101543.06;5052623;28;20052;-60
2022/04/13 09:02:00;;;;;;;13.80;8.35;;;;;;;15.45;nan;101559.53;5053781;28;20052;-60
2022/04/13 09:04:28;;;;;;;14.45;8.63;;;;;;;15.21;nan;101513.66;5053311;28;20068;-60
2022/04/13 09:06:55;;;;;;;12.35;8.13;;;;;;;15.50;nan;101570.88;5051954;28;20398;-59
2022/04/13 09:09:28;;;;;;;17.65;9.27;;;;;;;15.23;nan;101523.25;5035170;28;20061;-59
2022/04/13 09:11:56;;;;;;;13.50;8.68;;;;;;;15.50;nan;101555.78;5053014;28;20423;-59
2022/04/13 09:14:21;;;;;;;14.07;8.32;;;;;;;15.62;nan;101562.38;5053299;28;20033;-61
2022/04/13 09:16:46;;;;;;;11.95;9.15;;;;;;;15.66;nan;101588.75;5053120;28;20033;-60
2022/04/13 09:19:12;;;;;;;12.75;8.32;;;;;;;15.37;nan;101535.97;5053152;28;20029;-60
2022/04/13 09:21:38;;;;;;;13.55;7.85;;;;;;;15.41;nan;101542.03;5052842;28;20116;-60
2022/04/13 09:24:07;;;;;;;13.85;7.78;;;;;;;15.75;nan;101598.13;5053031;28;20480;-59
2022/04/13 09:26:33;;;;;;;10.88;7.18;;;;;;;15.71;nan;101589.41;5051521;28;20040;-60
2022/04/13 09:28:58;;;;;;;9.82;7.13;;;;;;;15.47;nan;101545.31;5052844;28;20405;-60
2022/04/13 09:31:23;;;;;;;13.60;7.45;;;;;;;15.55;nan;101560.94;5052910;28;20044;-60
2022/04/13 09:33:49;;;;;;;12.48;7.13;;;;;;;15.84;nan;101611.00;5051847;28;20131;-60
2022/04/13 09:36:15;;;;;;;14.77;7.05;;;;;;;15.87;nan;101610.88;5052725;28;20047;-60
2022/04/13 09:38:40;;;;;;;9.50;6.15;;;;;;;15.79;nan;101599.69;5051461;28;20033;-60
2022/04/13 09:41:10;;;;;;;12.30;7.00;;;;;;;15.89;nan;101630.25;5051503;28;20033;-59
2022/04/13 09:43:37;;;;;;;14.10;6.95;;;;;;;15.95;nan;101623.81;5052623;28;20029;-59
2022/04/13 09:46:02;;;;;;;12.15;6.25;;;;;;;15.99;nan;101631.59;5052750;28;20702;-59
2022/04/13 09:48:29;;;;;;;10.73;6.45;;;;;;;15.56;nan;101573.25;5051429;28;20037;-59
2022/04/13 09:50:57;;;;;;;13.77;6.57;;;;;;;15.51;nan;101577.88;5052530;28;20466;-59
2022/04/13 09:53:23;;;;;;;10.23;6.90;;;;;;;15.30;nan;101570.75;5053010;28;20082;-60
2022/04/13 09:55:57;;;;;;;13.02;6.82;;;;;;;15.52;nan;101635.34;5051003;28;20037;-60
2022/04/13 09:58:25;;;;;;;14.65;7.40;;;;;;;15.14;nan;101571.41;5051648;28;20033;-60
2022/04/13 10:00:53;;;;;;;9.32;6.07;;;;;;;15.28;nan;101615.06;5051137;28;20071;-60
2022/04/13 10:03:23;;;;;;;12.93;6.88;;;;;;;15.26;nan;101619.56;5051125;28;20444;-60
2022/04/13 10:05:54;;;;;;;11.27;7.03;;;;;;;15.13;nan;101616.53;5051262;28;20491;-61
2022/04/13 10:08:24;;;;;;;10.02;5.68;;;;;;;15.15;nan;101612.00;5052607;28;20036;-61
2022/04/13 10:10:56;;;;;;;13.90;6.93;;;;;;;15.27;nan;101626.56;5052520;28;20047;-60
2022/04/13 10:13:31;;;;;;;9.75;5.45;;;;;;;15.25;nan;101633.75;5050979;28;20200;-61
2022/04/13 10:15:57;;;;;;;12.75;5.65;;;;;;;15.26;nan;101632.84;5052265;28;20100;-59
2022/04/13 10:18:23;;;;;;;16.05;6.50;;;;;;;15.30;nan;101642.38;5051728;28;20033;-59
2022/04/13 10:20:48;;;;;;;10.18;6.40;;;;;;;15.33;nan;101636.94;5051890;28;20036;-59
2022/04/13 10:23:14;;;;;;;14.52;6.47;;;;;;;15.23;nan;101616.09;5050837;28;20033;-59
2022/04/13 10:25:43;;;;;;;11.65;5.90;;;;;;;15.15;nan;101596.97;5050914;28;20036;-59
2022/04/13 10:28:12;;;;;;;9.10;6.78;;;;;;;15.49;nan;101648.75;5051321;28;20378;-59
2022/04/13 10:30:40;;;;;;;11.95;7.03;;;;;;;15.44;nan;101640.06;5051951;28;20072;-59
2022/04/13 10:33:06;;;;;;;13.20;7.57;;;;;;;15.55;nan;101651.16;5052318;28;20542;-61
2022/04/13 10:35:34;;;;;;;14.10;8.73;;;;;;;15.54;nan;101639.66;5052897;28;20083;-60
2022/04/13 10:38:00;;;;;;;15.02;8.43;;;;;;;15.40;nan;101582.75;5052301;28;20119;-60
2022/04/13 10:40:27;;;;;;;11.15;8.07;;;;;;;15.87;nan;101649.84;5051405;28;20116;-60
2022/04/13 10:42:53;;;;;;;14.00;8.55;;;;;;;15.72;nan;101592.94;5051358;28;20454;-60
2022/04/13 10:45:18;;;;;;;12.20;7.32;;;;;;;16.19;nan;101657.31;5051532;28;20132;-58
2022/04/13 10:47:57;;;;;;;13.38;8.18;;;;;;;16.10;nan;101609.91;5051477;28;20029;-61
2022/04/13 10:50:46;;;;;;;12.32;7.75;;;;;;;16.55;nan;101665.53;5051389;28;20091;-60
2022/04/13 10:53:11;;;;;;;13.52;7.43;;;;;;;16.67;nan;101667.63;5045671;28;20075;-60
2022/04/13 10:55:36;;;;;;;12.27;7.73;;;;;;;16.76;nan;101669.88;5051696;28;20126;-60
2022/04/13 10:58:07;;;;;;;9.55;7.00;;;;;;;17.03;nan;101662.44;5050063;28;20325;-60
2022/04/13 11:00:35;;;;;;;11.82;7.80;;;;;;;16.95;nan;101620.25;5051632;28;20064;-60
2022/04/13 11:03:05;;;;;;;9.30;6.65;;;;;;;17.46;nan;101659.50;5049894;28;20417;-61
2022/04/13 11:05:31;;;;;;;14.07;8.57;;;;;;;17.61;nan;101676.56;5050062;28;20037;-60
2022/04/13 11:08:21;;;;;;;13.00;7.50;;;;;;;17.73;nan;101675.97;5050791;28;20434;-59
2022/04/13 11:10:48;;;;;;;10.68;7.40;;;;;;;17.56;nan;101666.16;5050407;28;20039;-59
2022/04/13 11:13:14;;;;;;;12.10;8.10;;;;;;;17.34;nan;101612.16;5049809;28;20033;-60
2022/04/13 11:15:45;;;;;;;12.18;8.57;;;;;;;17.60;nan;101680.19;5033138;28;20405;-59
2022/04/13 11:18:12;;;;;;;12.75;9.52;;;;;;;17.66;nan;101645.28;5049810;28;20025;-58
2022/04/13 11:20:58;;;;;;;15.32;8.65;;;;;;;17.91;nan;101669.75;5051092;28;20086;-59
2022/04/13 11:23:43;;;;;;;9.50;7.60;;;;;;;18.51;nan;101679.97;5050564;28;20036;-60
2022/04/13 11:26:08;;;;;;;13.27;8.10;;;;;;;18.58;nan;101639.69;5050266;28;20049;-60
2022/04/13 11:28:35;;;;;;;9.90;7.47;;;;;;;19.14;nan;101692.66;5050832;28;20067;-59
2022/04/13 11:31:00;;;;;;;7.72;6.45;;;;;;;19.16;nan;101691.63;5050618;28;20041;-60